sensor_id;sensor_type;location;lat;lon;timestamp;P1;durP1;ratioP1;P2;durP2;ratioP2
70455;SDS011;57916;51.996;5.180;2023-05-31T00:01:30;4.80;;;3.17;;
70455;SDS011;57916;51.996;5.180;2023-05-31T00:03:57;5.38;;;3.50;;
70455;SDS011;57916;51.996;5.180;2023-05-31T00:06:24;4.78;;;3.28;;
70455;SDS011;57916;51.996;5.180;2023-05-31T00:08:52;5.07;;;3.50;;
70455;SDS011;57916;51.996;5.180;2023-05-31T00:11:19;7.05;;;3.53;;
70455;SDS011;57916;51.996;5.180;2023-05-31T00:13:46;7.10;;;3.60;;
70455;SDS011;57916;51.996;5.180;2023-05-31T00:16:12;4.60;;;3.60;;
70455;SDS011;57916;51.996;5.180;2023-05-31T00:19:00;6.60;;;3.70;;
70455;SDS011;57916;51.996;5.180;2023-05-31T00:21:27;7.28;;;3.60;;
70455;SDS011;57916;51.996;5.180;2023-05-31T00:23:54;8.23;;;3.63;;
70455;SDS011;57916;51.996;5.180;2023-05-31T00:26:21;6.78;;;3.80;;
70455;SDS011;57916;51.996;5.180;2023-05-31T00:28:49;6.40;;;3.70;;
70455;SDS011;57916;51.996;5.180;2023-05-31T00:31:17;4.22;;;3.50;;
70455;SDS011;57916;51.996;5.180;2023-05-31T00:33:45;4.78;;;3.78;;
70455;SDS011;57916;51.996;5.180;2023-05-31T00:36:12;6.65;;;3.85;;
70455;SDS011;57916;51.996;5.180;2023-05-31T00:38:39;5.00;;;3.60;;
70455;SDS011;57916;51.996;5.180;2023-05-31T00:41:08;9.23;;;3.92;;
70455;SDS011;57916;51.996;5.180;2023-05-31T00:43:36;5.75;;;3.80;;
70455;SDS011;57916;51.996;5.180;2023-05-31T00:46:03;5.93;;;4.00;;
70455;SDS011;57916;51.996;5.180;2023-05-31T00:48:31;7.95;;;3.70;;
70455;SDS011;57916;51.996;5.180;2023-05-31T00:50:58;6.60;;;3.90;;
70455;SDS011;57916;51.996;5.180;2023-05-31T00:53:26;5.40;;;3.70;;
70455;SDS011;57916;51.996;5.180;2023-05-31T00:55:53;5.30;;;3.70;;
70455;SDS011;57916;51.996;5.180;2023-05-31T00:58:21;5.82;;;3.85;;
70455;SDS011;57916;51.996;5.180;2023-05-31T01:00:50;5.93;;;3.85;;
70455;SDS011;57916;51.996;5.180;2023-05-31T01:03:17;5.47;;;3.80;;
70455;SDS011;57916;51.996;5.180;2023-05-31T01:05:49;5.13;;;3.95;;
70455;SDS011;57916;51.996;5.180;2023-05-31T01:08:16;5.38;;;4.05;;
70455;SDS011;57916;51.996;5.180;2023-05-31T01:10:43;5.85;;;3.92;;
70455;SDS011;57916;51.996;5.180;2023-05-31T01:16:14;7.30;;;4.03;;
70455;SDS011;57916;51.996;5.180;2023-05-31T01:18:33;4.95;;;3.60;;
70455;SDS011;57916;51.996;5.180;2023-05-31T01:21:08;7.43;;;4.07;;
70455;SDS011;57916;51.996;5.180;2023-05-31T01:26:37;5.70;;;3.83;;
70455;SDS011;57916;51.996;5.180;2023-05-31T01:29:13;8.38;;;4.00;;
70455;SDS011;57916;51.996;5.180;2023-05-31T01:31:46;6.65;;;4.28;;
70455;SDS011;57916;51.996;5.180;2023-05-31T01:34:14;7.82;;;4.25;;
70455;SDS011;57916;51.996;5.180;2023-05-31T01:36:41;8.80;;;4.50;;
70455;SDS011;57916;51.996;5.180;2023-05-31T01:39:09;8.35;;;3.92;;
70455;SDS011;57916;51.996;5.180;2023-05-31T01:41:38;9.47;;;3.97;;
70455;SDS011;57916;51.996;5.180;2023-05-31T01:44:07;4.78;;;3.80;;
70455;SDS011;57916;51.996;5.180;2023-05-31T01:46:35;8.77;;;4.35;;
70455;SDS011;57916;51.996;5.180;2023-05-31T01:49:03;6.20;;;4.10;;
70455;SDS011;57916;51.996;5.180;2023-05-31T01:51:31;6.13;;;4.32;;
70455;SDS011;57916;51.996;5.180;2023-05-31T01:53:59;7.00;;;4.47;;
70455;SDS011;57916;51.996;5.180;2023-05-31T01:56:26;6.03;;;4.00;;
70455;SDS011;57916;51.996;5.180;2023-05-31T01:58:55;6.60;;;4.55;;
70455;SDS011;57916;51.996;5.180;2023-05-31T02:01:23;6.90;;;4.05;;
70455;SDS011;57916;51.996;5.180;2023-05-31T02:03:50;6.65;;;4.80;;
70455;SDS011;57916;51.996;5.180;2023-05-31T02:06:18;6.38;;;4.25;;
70455;SDS011;57916;51.996;5.180;2023-05-31T02:08:45;5.05;;;4.20;;
70455;SDS011;57916;51.996;5.180;2023-05-31T02:11:12;7.25;;;4.30;;
70455;SDS011;57916;51.996;5.180;2023-05-31T02:13:39;7.50;;;4.45;;
70455;SDS011;57916;51.996;5.180;2023-05-31T02:16:06;5.40;;;4.13;;
70455;SDS011;57916;51.996;5.180;2023-05-31T02:18:33;9.32;;;4.70;;
70455;SDS011;57916;51.996;5.180;2023-05-31T02:21:02;8.77;;;4.80;;
70455;SDS011;57916;51.996;5.180;2023-05-31T02:23:29;7.28;;;4.80;;
70455;SDS011;57916;51.996;5.180;2023-05-31T02:25:56;7.78;;;4.50;;
70455;SDS011;57916;51.996;5.180;2023-05-31T02:28:23;6.83;;;4.20;;
70455;SDS011;57916;51.996;5.180;2023-05-31T02:30:57;7.85;;;4.50;;
70455;SDS011;57916;51.996;5.180;2023-05-31T02:33:26;5.40;;;4.47;;
70455;SDS011;57916;51.996;5.180;2023-05-31T02:35:53;6.47;;;4.90;;
70455;SDS011;57916;51.996;5.180;2023-05-31T02:38:23;7.68;;;4.40;;
70455;SDS011;57916;51.996;5.180;2023-05-31T02:40:51;6.38;;;4.28;;
70455;SDS011;57916;51.996;5.180;2023-05-31T02:43:18;6.13;;;4.45;;
70455;SDS011;57916;51.996;5.180;2023-05-31T02:45:45;7.80;;;4.32;;
70455;SDS011;57916;51.996;5.180;2023-05-31T02:48:12;7.83;;;4.57;;
70455;SDS011;57916;51.996;5.180;2023-05-31T02:50:39;7.75;;;4.97;;
70455;SDS011;57916;51.996;5.180;2023-05-31T02:53:20;8.02;;;4.80;;
70455;SDS011;57916;51.996;5.180;2023-05-31T02:55:56;8.15;;;4.68;;
70455;SDS011;57916;51.996;5.180;2023-05-31T02:58:23;12.23;;;5.00;;
70455;SDS011;57916;51.996;5.180;2023-05-31T03:01:28;9.43;;;4.95;;
70455;SDS011;57916;51.996;5.180;2023-05-31T03:04:09;8.00;;;4.63;;
70455;SDS011;57916;51.996;5.180;2023-05-31T03:06:36;6.50;;;4.70;;
70455;SDS011;57916;51.996;5.180;2023-05-31T03:09:06;7.22;;;5.07;;
70455;SDS011;57916;51.996;5.180;2023-05-31T03:11:35;9.20;;;5.25;;
70455;SDS011;57916;51.996;5.180;2023-05-31T03:14:02;7.70;;;5.28;;
70455;SDS011;57916;51.996;5.180;2023-05-31T03:16:43;7.18;;;5.10;;
70455;SDS011;57916;51.996;5.180;2023-05-31T03:19:11;9.60;;;5.45;;
70455;SDS011;57916;51.996;5.180;2023-05-31T03:21:43;11.40;;;5.13;;
70455;SDS011;57916;51.996;5.180;2023-05-31T03:24:10;8.40;;;4.95;;
70455;SDS011;57916;51.996;5.180;2023-05-31T03:26:37;9.82;;;5.38;;
70455;SDS011;57916;51.996;5.180;2023-05-31T03:29:05;10.60;;;5.03;;
70455;SDS011;57916;51.996;5.180;2023-05-31T03:31:33;10.70;;;5.40;;
70455;SDS011;57916;51.996;5.180;2023-05-31T03:34:01;10.35;;;5.43;;
70455;SDS011;57916;51.996;5.180;2023-05-31T03:36:28;8.18;;;5.40;;
70455;SDS011;57916;51.996;5.180;2023-05-31T03:38:58;9.52;;;5.22;;
70455;SDS011;57916;51.996;5.180;2023-05-31T03:41:25;11.20;;;5.45;;
70455;SDS011;57916;51.996;5.180;2023-05-31T03:43:52;9.32;;;5.70;;
70455;SDS011;57916;51.996;5.180;2023-05-31T03:46:19;8.10;;;5.10;;
70455;SDS011;57916;51.996;5.180;2023-05-31T03:48:47;10.15;;;5.35;;
70455;SDS011;57916;51.996;5.180;2023-05-31T03:51:16;9.43;;;4.93;;
70455;SDS011;57916;51.996;5.180;2023-05-31T03:53:44;10.80;;;5.70;;
70455;SDS011;57916;51.996;5.180;2023-05-31T03:56:11;9.15;;;5.70;;
70455;SDS011;57916;51.996;5.180;2023-05-31T03:58:39;11.73;;;5.70;;
70455;SDS011;57916;51.996;5.180;2023-05-31T04:01:07;8.88;;;5.65;;
70455;SDS011;57916;51.996;5.180;2023-05-31T04:03:34;8.17;;;5.57;;
70455;SDS011;57916;51.996;5.180;2023-05-31T04:06:06;9.43;;;5.68;;
70455;SDS011;57916;51.996;5.180;2023-05-31T04:08:33;9.10;;;5.80;;
70455;SDS011;57916;51.996;5.180;2023-05-31T04:11:02;9.45;;;5.60;;
70455;SDS011;57916;51.996;5.180;2023-05-31T04:13:29;10.07;;;5.55;;
70455;SDS011;57916;51.996;5.180;2023-05-31T04:15:56;12.97;;;6.20;;
70455;SDS011;57916;51.996;5.180;2023-05-31T04:18:23;9.93;;;6.03;;
70455;SDS011;57916;51.996;5.180;2023-05-31T04:20:51;10.20;;;5.97;;
70455;SDS011;57916;51.996;5.180;2023-05-31T04:23:18;9.95;;;6.15;;
70455;SDS011;57916;51.996;5.180;2023-05-31T04:25:45;10.40;;;5.90;;
70455;SDS011;57916;51.996;5.180;2023-05-31T04:28:12;9.43;;;5.80;;
70455;SDS011;57916;51.996;5.180;2023-05-31T04:30:41;9.57;;;5.68;;
70455;SDS011;57916;51.996;5.180;2023-05-31T04:33:11;11.95;;;6.25;;
70455;SDS011;57916;51.996;5.180;2023-05-31T04:35:39;10.23;;;6.10;;
70455;SDS011;57916;51.996;5.180;2023-05-31T04:38:06;9.90;;;5.85;;
70455;SDS011;57916;51.996;5.180;2023-05-31T04:40:34;10.50;;;5.80;;
70455;SDS011;57916;51.996;5.180;2023-05-31T04:43:01;11.73;;;6.45;;
70455;SDS011;57916;51.996;5.180;2023-05-31T04:45:31;11.57;;;6.38;;
70455;SDS011;57916;51.996;5.180;2023-05-31T04:48:00;9.25;;;6.10;;
70455;SDS011;57916;51.996;5.180;2023-05-31T04:50:28;11.57;;;6.47;;
70455;SDS011;57916;51.996;5.180;2023-05-31T04:52:57;15.20;;;6.93;;
70455;SDS011;57916;51.996;5.180;2023-05-31T04:55:25;11.68;;;6.75;;
70455;SDS011;57916;51.996;5.180;2023-05-31T04:57:55;12.98;;;7.20;;
70455;SDS011;57916;51.996;5.180;2023-05-31T05:00:22;10.95;;;6.95;;
70455;SDS011;57916;51.996;5.180;2023-05-31T05:03:05;13.98;;;6.82;;
70455;SDS011;57916;51.996;5.180;2023-05-31T05:05:36;10.45;;;6.80;;
70455;SDS011;57916;51.996;5.180;2023-05-31T05:08:04;12.97;;;6.87;;
70455;SDS011;57916;51.996;5.180;2023-05-31T05:10:30;14.30;;;7.47;;
70455;SDS011;57916;51.996;5.180;2023-05-31T05:12:58;13.73;;;6.68;;
70455;SDS011;57916;51.996;5.180;2023-05-31T05:15:25;11.13;;;7.00;;
70455;SDS011;57916;51.996;5.180;2023-05-31T05:17:52;12.38;;;6.90;;
70455;SDS011;57916;51.996;5.180;2023-05-31T05:20:19;15.50;;;7.20;;
70455;SDS011;57916;51.996;5.180;2023-05-31T05:22:50;14.35;;;7.05;;
70455;SDS011;57916;51.996;5.180;2023-05-31T05:25:21;13.48;;;6.70;;
70455;SDS011;57916;51.996;5.180;2023-05-31T05:27:49;12.98;;;7.40;;
70455;SDS011;57916;51.996;5.180;2023-05-31T05:30:17;12.77;;;7.15;;
70455;SDS011;57916;51.996;5.180;2023-05-31T05:32:46;13.68;;;7.13;;
70455;SDS011;57916;51.996;5.180;2023-05-31T05:35:13;14.95;;;7.50;;
70455;SDS011;57916;51.996;5.180;2023-05-31T05:37:40;16.55;;;8.07;;
70455;SDS011;57916;51.996;5.180;2023-05-31T05:40:07;12.43;;;7.38;;
70455;SDS011;57916;51.996;5.180;2023-05-31T05:42:34;14.63;;;7.53;;
70455;SDS011;57916;51.996;5.180;2023-05-31T05:45:06;13.68;;;7.20;;
70455;SDS011;57916;51.996;5.180;2023-05-31T05:47:34;13.95;;;7.70;;
70455;SDS011;57916;51.996;5.180;2023-05-31T05:50:03;13.57;;;7.95;;
70455;SDS011;57916;51.996;5.180;2023-05-31T05:52:31;16.42;;;7.30;;
70455;SDS011;57916;51.996;5.180;2023-05-31T05:54:58;14.02;;;7.13;;
70455;SDS011;57916;51.996;5.180;2023-05-31T05:57:25;12.35;;;7.35;;
70455;SDS011;57916;51.996;5.180;2023-05-31T05:59:59;12.25;;;7.05;;
70455;SDS011;57916;51.996;5.180;2023-05-31T06:02:38;13.75;;;7.13;;
70455;SDS011;57916;51.996;5.180;2023-05-31T06:05:07;13.82;;;7.50;;
70455;SDS011;57916;51.996;5.180;2023-05-31T06:07:35;13.48;;;7.40;;
70455;SDS011;57916;51.996;5.180;2023-05-31T06:10:02;14.13;;;7.00;;
70455;SDS011;57916;51.996;5.180;2023-05-31T06:12:29;13.57;;;7.15;;
70455;SDS011;57916;51.996;5.180;2023-05-31T06:14:58;12.43;;;6.65;;
70455;SDS011;57916;51.996;5.180;2023-05-31T06:17:26;19.13;;;7.10;;
70455;SDS011;57916;51.996;5.180;2023-05-31T06:19:53;14.13;;;7.27;;
70455;SDS011;57916;51.996;5.180;2023-05-31T06:22:20;14.85;;;7.38;;
70455;SDS011;57916;51.996;5.180;2023-05-31T06:24:48;14.03;;;7.23;;
70455;SDS011;57916;51.996;5.180;2023-05-31T06:27:15;14.60;;;6.90;;
70455;SDS011;57916;51.996;5.180;2023-05-31T06:29:43;13.68;;;6.93;;
70455;SDS011;57916;51.996;5.180;2023-05-31T06:32:25;11.85;;;6.82;;
70455;SDS011;57916;51.996;5.180;2023-05-31T06:34:56;12.73;;;6.78;;
70455;SDS011;57916;51.996;5.180;2023-05-31T06:37:23;15.02;;;6.90;;
70455;SDS011;57916;51.996;5.180;2023-05-31T06:39:50;12.23;;;6.30;;
70455;SDS011;57916;51.996;5.180;2023-05-31T06:42:18;14.17;;;7.00;;
70455;SDS011;57916;51.996;5.180;2023-05-31T06:44:45;12.30;;;6.55;;
70455;SDS011;57916;51.996;5.180;2023-05-31T06:47:45;15.05;;;6.63;;
70455;SDS011;57916;51.996;5.180;2023-05-31T06:50:21;16.20;;;6.70;;
70455;SDS011;57916;51.996;5.180;2023-05-31T06:53:17;13.10;;;6.20;;
70455;SDS011;57916;51.996;5.180;2023-05-31T06:55:47;12.20;;;6.28;;
70455;SDS011;57916;51.996;5.180;2023-05-31T06:58:18;9.85;;;6.10;;
70455;SDS011;57916;51.996;5.180;2023-05-31T07:00:47;11.38;;;5.95;;
70455;SDS011;57916;51.996;5.180;2023-05-31T07:03:14;11.50;;;6.10;;
70455;SDS011;57916;51.996;5.180;2023-05-31T07:05:41;13.20;;;6.07;;
70455;SDS011;57916;51.996;5.180;2023-05-31T07:08:10;11.07;;;5.40;;
70455;SDS011;57916;51.996;5.180;2023-05-31T07:10:57;12.40;;;5.78;;
70455;SDS011;57916;51.996;5.180;2023-05-31T07:13:25;10.38;;;5.30;;
70455;SDS011;57916;51.996;5.180;2023-05-31T07:15:52;8.27;;;5.60;;
70455;SDS011;57916;51.996;5.180;2023-05-31T07:18:19;9.35;;;5.63;;
70455;SDS011;57916;51.996;5.180;2023-05-31T07:20:47;11.93;;;5.18;;
70455;SDS011;57916;51.996;5.180;2023-05-31T07:23:14;9.63;;;5.47;;
70455;SDS011;57916;51.996;5.180;2023-05-31T07:25:41;13.03;;;5.30;;
70455;SDS011;57916;51.996;5.180;2023-05-31T07:28:09;9.95;;;5.15;;
70455;SDS011;57916;51.996;5.180;2023-05-31T07:30:37;10.00;;;4.97;;
70455;SDS011;57916;51.996;5.180;2023-05-31T07:33:04;12.35;;;5.22;;
70455;SDS011;57916;51.996;5.180;2023-05-31T07:35:31;10.07;;;5.00;;
70455;SDS011;57916;51.996;5.180;2023-05-31T07:37:58;8.20;;;5.13;;
70455;SDS011;57916;51.996;5.180;2023-05-31T07:40:25;10.40;;;4.80;;
70455;SDS011;57916;51.996;5.180;2023-05-31T07:42:53;9.85;;;5.10;;
70455;SDS011;57916;51.996;5.180;2023-05-31T07:45:20;10.30;;;4.80;;
70455;SDS011;57916;51.996;5.180;2023-05-31T07:47:47;7.75;;;4.70;;
70455;SDS011;57916;51.996;5.180;2023-05-31T07:50:14;10.65;;;4.68;;
70455;SDS011;57916;51.996;5.180;2023-05-31T07:52:42;8.57;;;4.63;;
70455;SDS011;57916;51.996;5.180;2023-05-31T07:55:12;8.23;;;4.43;;
70455;SDS011;57916;51.996;5.180;2023-05-31T07:57:40;12.50;;;5.27;;
70455;SDS011;57916;51.996;5.180;2023-05-31T08:00:07;13.07;;;4.53;;
70455;SDS011;57916;51.996;5.180;2023-05-31T08:02:38;8.82;;;4.60;;
70455;SDS011;57916;51.996;5.180;2023-05-31T08:05:05;12.55;;;4.47;;
70455;SDS011;57916;51.996;5.180;2023-05-31T08:07:33;11.35;;;4.20;;
70455;SDS011;57916;51.996;5.180;2023-05-31T08:10:01;9.30;;;4.33;;
70455;SDS011;57916;51.996;5.180;2023-05-31T08:12:29;14.20;;;4.30;;
70455;SDS011;57916;51.996;5.180;2023-05-31T08:14:57;11.07;;;3.92;;
70455;SDS011;57916;51.996;5.180;2023-05-31T08:17:25;9.63;;;4.13;;
70455;SDS011;57916;51.996;5.180;2023-05-31T08:19:52;10.60;;;4.00;;
70455;SDS011;57916;51.996;5.180;2023-05-31T08:22:20;12.67;;;4.17;;
70455;SDS011;57916;51.996;5.180;2023-05-31T08:24:47;6.15;;;3.85;;
70455;SDS011;57916;51.996;5.180;2023-05-31T08:27:14;12.90;;;4.47;;
70455;SDS011;57916;51.996;5.180;2023-05-31T08:29:41;14.35;;;4.18;;
70455;SDS011;57916;51.996;5.180;2023-05-31T08:32:08;8.25;;;3.58;;
70455;SDS011;57916;51.996;5.180;2023-05-31T08:34:35;8.33;;;3.70;;
70455;SDS011;57916;51.996;5.180;2023-05-31T08:37:02;8.55;;;3.80;;
70455;SDS011;57916;51.996;5.180;2023-05-31T08:39:29;6.87;;;3.80;;
70455;SDS011;57916;51.996;5.180;2023-05-31T08:42:01;9.25;;;3.85;;
70455;SDS011;57916;51.996;5.180;2023-05-31T08:44:31;9.10;;;3.78;;
70455;SDS011;57916;51.996;5.180;2023-05-31T08:46:59;12.32;;;4.30;;
70455;SDS011;57916;51.996;5.180;2023-05-31T08:49:34;10.57;;;4.20;;
70455;SDS011;57916;51.996;5.180;2023-05-31T08:52:02;11.57;;;3.80;;
70455;SDS011;57916;51.996;5.180;2023-05-31T08:54:30;8.25;;;3.95;;
70455;SDS011;57916;51.996;5.180;2023-05-31T08:56:58;9.15;;;4.00;;
70455;SDS011;57916;51.996;5.180;2023-05-31T08:59:27;8.07;;;3.45;;
70455;SDS011;57916;51.996;5.180;2023-05-31T09:01:55;9.52;;;4.50;;
70455;SDS011;57916;51.996;5.180;2023-05-31T09:04:25;12.43;;;4.40;;
70455;SDS011;57916;51.996;5.180;2023-05-31T09:06:52;10.63;;;4.32;;
70455;SDS011;57916;51.996;5.180;2023-05-31T09:09:19;8.73;;;4.18;;
70455;SDS011;57916;51.996;5.180;2023-05-31T09:11:46;8.77;;;4.60;;
70455;SDS011;57916;51.996;5.180;2023-05-31T09:14:12;10.77;;;4.45;;
70455;SDS011;57916;51.996;5.180;2023-05-31T09:16:39;10.85;;;3.85;;
70455;SDS011;57916;51.996;5.180;2023-05-31T09:19:08;8.57;;;3.90;;
70455;SDS011;57916;51.996;5.180;2023-05-31T09:21:38;9.52;;;4.05;;
70455;SDS011;57916;51.996;5.180;2023-05-31T09:24:07;9.65;;;3.90;;
70455;SDS011;57916;51.996;5.180;2023-05-31T09:26:46;8.60;;;3.65;;
70455;SDS011;57916;51.996;5.180;2023-05-31T09:29:15;7.03;;;3.92;;
70455;SDS011;57916;51.996;5.180;2023-05-31T09:31:44;9.93;;;3.85;;
70455;SDS011;57916;51.996;5.180;2023-05-31T09:34:24;11.90;;;3.92;;
70455;SDS011;57916;51.996;5.180;2023-05-31T09:36:56;12.38;;;3.70;;
70455;SDS011;57916;51.996;5.180;2023-05-31T09:39:24;8.82;;;3.70;;
70455;SDS011;57916;51.996;5.180;2023-05-31T09:41:51;10.43;;;4.27;;
70455;SDS011;57916;51.996;5.180;2023-05-31T09:44:18;11.18;;;4.15;;
70455;SDS011;57916;51.996;5.180;2023-05-31T09:46:45;9.90;;;4.07;;
70455;SDS011;57916;51.996;5.180;2023-05-31T09:49:13;7.53;;;3.40;;
70455;SDS011;57916;51.996;5.180;2023-05-31T09:51:40;11.70;;;3.97;;
70455;SDS011;57916;51.996;5.180;2023-05-31T09:54:17;11.60;;;3.67;;
70455;SDS011;57916;51.996;5.180;2023-05-31T09:56:51;5.60;;;3.08;;
70455;SDS011;57916;51.996;5.180;2023-05-31T09:59:18;7.38;;;3.00;;
70455;SDS011;57916;51.996;5.180;2023-05-31T10:01:45;8.18;;;3.47;;
70455;SDS011;57916;51.996;5.180;2023-05-31T10:04:13;9.50;;;3.38;;
70455;SDS011;57916;51.996;5.180;2023-05-31T10:06:41;5.63;;;3.25;;
70455;SDS011;57916;51.996;5.180;2023-05-31T10:09:11;8.20;;;3.40;;
70455;SDS011;57916;51.996;5.180;2023-05-31T10:11:40;6.53;;;3.00;;
70455;SDS011;57916;51.996;5.180;2023-05-31T10:14:20;6.80;;;3.13;;
70455;SDS011;57916;51.996;5.180;2023-05-31T10:16:53;8.38;;;3.60;;
70455;SDS011;57916;51.996;5.180;2023-05-31T10:19:23;9.32;;;3.10;;
70455;SDS011;57916;51.996;5.180;2023-05-31T10:21:53;8.43;;;3.23;;
70455;SDS011;57916;51.996;5.180;2023-05-31T10:24:25;7.55;;;3.10;;
70455;SDS011;57916;51.996;5.180;2023-05-31T10:29:33;8.05;;;3.78;;
70455;SDS011;57916;51.996;5.180;2023-05-31T10:32:06;8.20;;;3.40;;
70455;SDS011;57916;51.996;5.180;2023-05-31T10:34:39;8.60;;;3.10;;
70455;SDS011;57916;51.996;5.180;2023-05-31T10:37:06;9.23;;;3.20;;
70455;SDS011;57916;51.996;5.180;2023-05-31T10:39:49;11.05;;;3.45;;
70455;SDS011;57916;51.996;5.180;2023-05-31T10:48:25;9.95;;;3.83;;
70455;SDS011;57916;51.996;5.180;2023-05-31T10:50:53;7.00;;;3.42;;
70455;SDS011;57916;51.996;5.180;2023-05-31T10:53:35;6.25;;;3.10;;
70455;SDS011;57916;51.996;5.180;2023-05-31T10:56:03;8.85;;;3.25;;
70455;SDS011;57916;51.996;5.180;2023-05-31T10:58:36;7.10;;;3.20;;
70455;SDS011;57916;51.996;5.180;2023-05-31T11:01:12;6.35;;;3.10;;
70455;SDS011;57916;51.996;5.180;2023-05-31T11:03:44;6.90;;;3.30;;
70455;SDS011;57916;51.996;5.180;2023-05-31T11:06:14;11.25;;;3.80;;
70455;SDS011;57916;51.996;5.180;2023-05-31T11:09:03;6.70;;;3.08;;
70455;SDS011;57916;51.996;5.180;2023-05-31T11:19:30;9.23;;;2.92;;
70455;SDS011;57916;51.996;5.180;2023-05-31T11:22:05;6.18;;;2.55;;
70455;SDS011;57916;51.996;5.180;2023-05-31T11:24:37;8.23;;;3.00;;
70455;SDS011;57916;51.996;5.180;2023-05-31T11:27:10;7.03;;;2.78;;
70455;SDS011;57916;51.996;5.180;2023-05-31T11:32:11;5.00;;;3.10;;
70455;SDS011;57916;51.996;5.180;2023-05-31T11:34:52;9.73;;;3.20;;
70455;SDS011;57916;51.996;5.180;2023-05-31T11:37:29;8.98;;;3.58;;
70455;SDS011;57916;51.996;5.180;2023-05-31T11:40:02;8.25;;;3.45;;
70455;SDS011;57916;51.996;5.180;2023-05-31T11:42:40;9.25;;;3.47;;
70455;SDS011;57916;51.996;5.180;2023-05-31T11:45:09;7.03;;;3.42;;
70455;SDS011;57916;51.996;5.180;2023-05-31T11:50:11;12.48;;;3.30;;
70455;SDS011;57916;51.996;5.180;2023-05-31T11:52:40;9.75;;;3.40;;
70455;SDS011;57916;51.996;5.180;2023-05-31T11:55:07;8.20;;;3.40;;
70455;SDS011;57916;51.996;5.180;2023-05-31T11:57:45;16.73;;;3.25;;
70455;SDS011;57916;51.996;5.180;2023-05-31T12:00:13;9.25;;;3.20;;
70455;SDS011;57916;51.996;5.180;2023-05-31T12:02:42;12.23;;;3.63;;
70455;SDS011;57916;51.996;5.180;2023-05-31T12:05:11;10.32;;;3.50;;
70455;SDS011;57916;51.996;5.180;2023-05-31T12:07:39;9.32;;;3.28;;
70455;SDS011;57916;51.996;5.180;2023-05-31T12:10:06;8.97;;;3.40;;
70455;SDS011;57916;51.996;5.180;2023-05-31T12:12:34;9.70;;;3.10;;
70455;SDS011;57916;51.996;5.180;2023-05-31T12:15:01;13.05;;;3.60;;
70455;SDS011;57916;51.996;5.180;2023-05-31T12:17:30;11.73;;;3.15;;
70455;SDS011;57916;51.996;5.180;2023-05-31T12:20:00;7.63;;;3.30;;
70455;SDS011;57916;51.996;5.180;2023-05-31T12:22:27;5.50;;;3.17;;
70455;SDS011;57916;51.996;5.180;2023-05-31T12:24:54;7.43;;;3.03;;
70455;SDS011;57916;51.996;5.180;2023-05-31T12:27:25;8.75;;;2.95;;
70455;SDS011;57916;51.996;5.180;2023-05-31T12:30:12;8.13;;;3.10;;
70455;SDS011;57916;51.996;5.180;2023-05-31T12:32:44;7.50;;;3.10;;
70455;SDS011;57916;51.996;5.180;2023-05-31T12:35:12;9.65;;;3.22;;
70455;SDS011;57916;51.996;5.180;2023-05-31T12:37:40;7.45;;;3.20;;
70455;SDS011;57916;51.996;5.180;2023-05-31T12:42:35;9.00;;;3.33;;
70455;SDS011;57916;51.996;5.180;2023-05-31T12:45:06;7.85;;;2.90;;
70455;SDS011;57916;51.996;5.180;2023-05-31T12:47:35;5.88;;;3.13;;
70455;SDS011;57916;51.996;5.180;2023-05-31T12:50:03;7.97;;;2.93;;
70455;SDS011;57916;51.996;5.180;2023-05-31T12:52:34;6.38;;;3.08;;
70455;SDS011;57916;51.996;5.180;2023-05-31T12:55:02;8.95;;;2.80;;
70455;SDS011;57916;51.996;5.180;2023-05-31T12:57:31;9.63;;;3.20;;
70455;SDS011;57916;51.996;5.180;2023-05-31T13:00:02;6.70;;;2.67;;
70455;SDS011;57916;51.996;5.180;2023-05-31T13:02:35;6.45;;;2.80;;
70455;SDS011;57916;51.996;5.180;2023-05-31T13:05:04;8.60;;;2.90;;
70455;SDS011;57916;51.996;5.180;2023-05-31T13:07:31;9.68;;;2.85;;
70455;SDS011;57916;51.996;5.180;2023-05-31T13:09:59;10.00;;;2.88;;
70455;SDS011;57916;51.996;5.180;2023-05-31T13:12:30;9.77;;;2.92;;
70455;SDS011;57916;51.996;5.180;2023-05-31T13:14:57;5.55;;;2.58;;
70455;SDS011;57916;51.996;5.180;2023-05-31T13:17:24;7.95;;;2.50;;
70455;SDS011;57916;51.996;5.180;2023-05-31T13:19:51;8.75;;;2.53;;
70455;SDS011;57916;51.996;5.180;2023-05-31T13:22:36;6.23;;;2.50;;
70455;SDS011;57916;51.996;5.180;2023-05-31T13:25:03;6.53;;;2.67;;
70455;SDS011;57916;51.996;5.180;2023-05-31T13:27:30;6.97;;;2.53;;
70455;SDS011;57916;51.996;5.180;2023-05-31T13:29:57;7.75;;;2.80;;
70455;SDS011;57916;51.996;5.180;2023-05-31T13:32:24;10.70;;;2.77;;
70455;SDS011;57916;51.996;5.180;2023-05-31T13:34:51;12.82;;;2.95;;
70455;SDS011;57916;51.996;5.180;2023-05-31T13:37:22;7.77;;;2.80;;
70455;SDS011;57916;51.996;5.180;2023-05-31T13:39:49;11.88;;;3.60;;
70455;SDS011;57916;51.996;5.180;2023-05-31T13:42:17;8.82;;;3.15;;
70455;SDS011;57916;51.996;5.180;2023-05-31T13:44:44;11.07;;;3.35;;
70455;SDS011;57916;51.996;5.180;2023-05-31T13:47:11;10.25;;;3.05;;
70455;SDS011;57916;51.996;5.180;2023-05-31T13:49:38;12.90;;;3.45;;
70455;SDS011;57916;51.996;5.180;2023-05-31T13:52:06;9.15;;;3.33;;
70455;SDS011;57916;51.996;5.180;2023-05-31T13:54:34;11.13;;;3.40;;
70455;SDS011;57916;51.996;5.180;2023-05-31T13:57:01;7.07;;;3.30;;
70455;SDS011;57916;51.996;5.180;2023-05-31T13:59:30;16.73;;;3.38;;
70455;SDS011;57916;51.996;5.180;2023-05-31T14:01:57;13.52;;;3.60;;
70455;SDS011;57916;51.996;5.180;2023-05-31T14:04:24;9.23;;;3.63;;
70455;SDS011;57916;51.996;5.180;2023-05-31T14:06:52;13.38;;;3.60;;
70455;SDS011;57916;51.996;5.180;2023-05-31T14:09:19;8.68;;;3.53;;
70455;SDS011;57916;51.996;5.180;2023-05-31T14:11:47;12.20;;;3.72;;
70455;SDS011;57916;51.996;5.180;2023-05-31T14:14:14;15.52;;;4.15;;
70455;SDS011;57916;51.996;5.180;2023-05-31T14:16:41;9.30;;;3.70;;
70455;SDS011;57916;51.996;5.180;2023-05-31T14:19:08;14.37;;;3.60;;
70455;SDS011;57916;51.996;5.180;2023-05-31T14:21:35;13.00;;;4.25;;
70455;SDS011;57916;51.996;5.180;2023-05-31T14:24:06;11.05;;;3.90;;
70455;SDS011;57916;51.996;5.180;2023-05-31T14:26:33;10.43;;;4.15;;
70455;SDS011;57916;51.996;5.180;2023-05-31T14:29:00;7.68;;;3.58;;
70455;SDS011;57916;51.996;5.180;2023-05-31T14:31:27;8.90;;;3.50;;
70455;SDS011;57916;51.996;5.180;2023-05-31T14:33:54;5.50;;;3.65;;
70455;SDS011;57916;51.996;5.180;2023-05-31T14:36:22;12.20;;;3.95;;
70455;SDS011;57916;51.996;5.180;2023-05-31T14:38:50;12.57;;;4.03;;
70455;SDS011;57916;51.996;5.180;2023-05-31T14:41:17;6.03;;;3.67;;
70455;SDS011;57916;51.996;5.180;2023-05-31T14:43:44;15.90;;;3.92;;
70455;SDS011;57916;51.996;5.180;2023-05-31T14:46:12;12.30;;;3.45;;
70455;SDS011;57916;51.996;5.180;2023-05-31T14:48:40;12.25;;;3.63;;
70455;SDS011;57916;51.996;5.180;2023-05-31T14:51:10;14.02;;;3.80;;
70455;SDS011;57916;51.996;5.180;2023-05-31T14:53:37;11.98;;;3.83;;
70455;SDS011;57916;51.996;5.180;2023-05-31T14:56:04;11.32;;;3.72;;
70455;SDS011;57916;51.996;5.180;2023-05-31T14:58:43;5.63;;;3.70;;
70455;SDS011;57916;51.996;5.180;2023-05-31T15:01:13;13.52;;;3.90;;
70455;SDS011;57916;51.996;5.180;2023-05-31T15:03:41;8.80;;;3.53;;
70455;SDS011;57916;51.996;5.180;2023-05-31T15:06:08;9.82;;;3.63;;
70455;SDS011;57916;51.996;5.180;2023-05-31T15:08:35;7.75;;;3.30;;
70455;SDS011;57916;51.996;5.180;2023-05-31T15:11:02;9.77;;;3.95;;
70455;SDS011;57916;51.996;5.180;2023-05-31T15:13:29;8.90;;;3.63;;
70455;SDS011;57916;51.996;5.180;2023-05-31T15:15:56;12.05;;;3.80;;
70455;SDS011;57916;51.996;5.180;2023-05-31T15:18:23;9.02;;;3.30;;
70455;SDS011;57916;51.996;5.180;2023-05-31T15:20:50;12.65;;;3.90;;
70455;SDS011;57916;51.996;5.180;2023-05-31T15:23:18;11.83;;;3.40;;
70455;SDS011;57916;51.996;5.180;2023-05-31T15:25:45;12.93;;;4.00;;